Time;durP1;ratioP1;P1;durP2;ratioP2;P2;SDS_P1;SDS_P2;PMS_P1;PMS_P2;Temp;Humidity;BMP_temperature;BMP_pressure;BME280_temperature;BME280_humidity;BME280_pressure;Samples;Min_cycle;Max_cycle;Signal;HPM_P1;HPM_P2
2022/05/19 00:01:02;;;;;;;14.13;8.30;;;15.20;88.40;;;;;;4589053;19;20010;-22
2022/05/19 00:02:33;;;;;;;14.02;8.70;;;15.20;88.50;;;;;;4588157;19;20016;-22
2022/05/19 00:04:04;;;;;;;15.73;8.32;;;15.20;88.20;;;;;;4589368;19;20078;-22
2022/05/19 00:05:35;;;;;;;16.90;8.30;;;15.10;88.00;;;;;;4589106;19;20009;-22
2022/05/19 00:07:06;;;;;;;13.00;7.70;;;15.20;88.30;;;;;;4588764;19;20492;-22
2022/05/19 00:08:37;;;;;;;12.65;8.30;;;15.20;88.00;;;;;;4588878;19;20083;-21
2022/05/19 00:10:11;;;;;;;14.40;8.37;;;15.20;88.00;;;;;;4588538;19;20476;-21
2022/05/19 00:11:42;;;;;;;15.70;8.70;;;15.10;87.80;;;;;;4589492;19;20103;-22
2022/05/19 00:13:13;;;;;;;15.13;8.40;;;15.20;87.90;;;;;;4588668;19;20018;-22
2022/05/19 00:14:44;;;;;;;13.95;8.30;;;15.10;87.80;;;;;;4589152;19;20022;-22
2022/05/19 00:16:15;;;;;;;15.95;9.07;;;15.10;88.10;;;;;;4589582;19;20009;-22
2022/05/19 00:17:46;;;;;;;16.45;10.18;;;15.10;87.80;;;;;;4590648;19;20093;-21
2022/05/19 00:19:18;;;;;;;16.98;10.43;;;15.10;87.60;;;;;;4590650;19;20109;-21
2022/05/19 00:20:49;;;;;;;18.35;11.07;;;15.10;87.10;;;;;;4590934;19;20045;-21
2022/05/19 00:22:20;;;;;;;22.02;11.75;;;15.10;86.70;;;;;;4589677;19;20002;-22
2022/05/19 00:23:51;;;;;;;15.45;10.57;;;15.10;86.40;;;;;;4590137;19;20038;-22
2022/05/19 00:25:24;;;;;;;16.43;10.17;;;15.00;86.30;;;;;;4589402;19;20026;-22
2022/05/19 00:26:55;;;;;;;21.15;13.68;;;15.00;86.50;;;;;;4590267;19;20006;-22
2022/05/19 00:28:26;;;;;;;19.42;12.02;;;15.00;86.20;;;;;;4589555;19;20021;-22
2022/05/19 00:29:56;;;;;;;21.13;13.13;;;15.10;86.10;;;;;;4590037;19;20010;-22
2022/05/19 00:31:29;;;;;;;23.42;13.88;;;15.00;85.50;;;;;;4590231;19;20015;-22
2022/05/19 00:33:00;;;;;;;22.10;13.97;;;15.00;85.30;;;;;;4590377;19;20011;-21
2022/05/19 00:34:31;;;;;;;25.27;14.05;;;15.00;84.70;;;;;;4590387;19;20018;-21
2022/05/19 00:36:29;;;;;;;23.38;15.15;;;15.00;84.70;;;;;;4590439;19;20011;-21
2022/05/19 00:38:00;;;;;;;28.43;16.77;;;15.00;84.70;;;;;;4590219;19;20011;-22
2022/05/19 00:39:33;;;;;;;23.35;15.43;;;15.00;84.50;;;;;;4590990;19;20018;-21
2022/05/19 00:41:04;;;;;;;27.37;16.67;;;15.00;84.30;;;;;;4590240;19;20472;-21
2022/05/19 00:42:44;;;;;;;26.80;16.60;;;15.00;84.10;;;;;;4589342;19;20014;-21
2022/05/19 00:44:15;;;;;;;32.30;16.90;;;15.00;83.90;;;;;;4590280;19;20014;-21
2022/05/19 00:45:51;;;;;;;27.38;15.63;;;15.00;83.70;;;;;;4589871;19;20006;-21
2022/05/19 00:47:23;;;;;;;31.33;16.60;;;15.00;83.70;;;;;;4588978;19;20357;-21
2022/05/19 00:49:24;;;;;;;27.60;16.50;;;15.00;83.50;;;;;;4588932;19;20029;-21
2022/05/19 00:51:06;;;;;;;33.07;16.93;;;15.00;83.20;;;;;;4587880;19;20078;-21
2022/05/19 00:52:39;;;;;;;31.40;17.58;;;15.00;83.00;;;;;;4587762;19;20420;-22
2022/05/19 00:54:12;;;;;;;31.43;17.10;;;15.00;83.30;;;;;;4586809;19;20446;-22
2022/05/19 00:55:44;;;;;;;29.57;16.97;;;15.00;83.20;;;;;;4587827;19;20007;-21
2022/05/19 00:57:24;;;;;;;30.70;17.63;;;15.00;83.00;;;;;;4588255;19;20015;-22
2022/05/19 00:58:57;;;;;;;30.17;17.50;;;15.00;83.00;;;;;;4587752;19;20489;-22
2022/05/19 01:00:29;;;;;;;28.57;17.43;;;15.00;83.10;;;;;;4587534;19;20017;-22
2022/05/19 01:02:00;;;;;;;30.07;17.43;;;14.90;83.10;;;;;;4587674;19;20005;-21
2022/05/19 01:03:42;;;;;;;32.47;17.23;;;14.90;83.30;;;;;;4587876;19;20014;-22
2022/05/19 01:05:18;;;;;;;27.50;17.40;;;14.90;83.30;;;;;;4587826;19;20014;-21
2022/05/19 01:06:49;;;;;;;26.37;15.73;;;14.90;83.20;;;;;;4587564;19;20513;-23
2022/05/19 01:08:24;;;;;;;26.67;16.23;;;15.00;83.50;;;;;;4587395;19;20014;-22
2022/05/19 01:09:56;;;;;;;29.90;16.90;;;15.00;83.80;;;;;;4591574;19;20038;-22
2022/05/19 01:11:27;;;;;;;27.75;17.77;;;15.00;83.80;;;;;;4592472;19;20021;-23
2022/05/19 01:12:58;;;;;;;28.45;15.35;;;15.00;84.10;;;;;;4592465;19;20039;-21
2022/05/19 01:14:30;;;;;;;27.02;16.25;;;15.00;83.80;;;;;;4592915;19;20015;-21
2022/05/19 01:16:02;;;;;;;24.93;15.43;;;15.00;84.10;;;;;;4592454;19;20115;-22
2022/05/19 01:17:34;;;;;;;24.92;15.82;;;15.00;84.60;;;;;;4592413;19;20035;-22
2022/05/19 01:19:14;;;;;;;29.77;17.13;;;14.90;84.40;;;;;;4592564;19;20075;-21
2022/05/19 01:20:45;;;;;;;27.60;16.10;;;14.90;83.90;;;;;;4592007;19;20377;-22
2022/05/19 01:22:19;;;;;;;27.25;14.68;;;14.90;84.30;;;;;;4591199;19;20078;-22
2022/05/19 01:23:55;;;;;;;26.50;13.87;;;14.90;84.20;;;;;;4592048;19;20474;-21
2022/05/19 01:25:32;;;;;;;26.77;15.10;;;14.90;84.30;;;;;;4592261;19;20015;-22
2022/05/19 01:27:04;;;;;;;24.43;14.20;;;14.90;84.10;;;;;;4591910;19;20363;-22
2022/05/19 01:28:35;;;;;;;20.77;13.30;;;14.90;84.30;;;;;;4594151;19;20018;-22
2022/05/19 01:30:08;;;;;;;23.95;14.75;;;14.90;84.40;;;;;;4594678;19;20341;-21
2022/05/19 01:31:55;;;;;;;22.23;13.87;;;14.90;84.50;;;;;;4593000;19;20014;-21
2022/05/19 01:33:26;;;;;;;22.37;12.67;;;14.90;84.70;;;;;;4593571;19;20468;-22
2022/05/19 01:34:58;;;;;;;22.55;13.65;;;15.00;84.60;;;;;;4594974;19;20519;-21
2022/05/19 01:36:29;;;;;;;21.83;13.07;;;14.90;84.40;;;;;;4592865;19;20015;-22
2022/05/19 01:38:01;;;;;;;17.80;10.43;;;14.90;84.60;;;;;;4593933;19;20010;-22
2022/05/19 01:39:32;;;;;;;16.83;10.90;;;14.90;85.10;;;;;;4593021;19;20003;-21
2022/05/19 01:41:38;;;;;;;18.23;12.13;;;14.90;85.00;;;;;;4593603;19;20007;-21
2022/05/19 01:43:37;;;;;;;19.13;11.73;;;15.00;85.20;;;;;;4593022;19;19999;-21
2022/05/19 01:45:13;;;;;;;16.07;10.30;;;15.00;85.30;;;;;;4592874;19;20007;-21
2022/05/19 01:46:46;;;;;;;18.33;10.03;;;14.90;85.30;;;;;;4593461;19;20032;-21
2022/05/19 01:48:37;;;;;;;12.00;7.70;;;14.90;85.30;;;;;;4592935;19;20017;-22
2022/05/19 01:50:29;;;;;;;12.07;7.93;;;14.90;86.00;;;;;;4592594;19;20018;-21
2022/05/19 01:52:11;;;;;;;13.03;7.37;;;15.00;86.40;;;;;;4594631;19;20002;-22
2022/05/19 01:53:50;;;;;;;12.30;7.63;;;14.90;86.50;;;;;;4591830;19;20402;-21
2022/05/19 01:55:48;;;;;;;11.30;7.20;;;14.90;86.30;;;;;;4592438;19;20018;-21
2022/05/19 01:57:56;;;;;;;10.57;7.00;;;14.90;86.50;;;;;;4591370;19;20014;-21
2022/05/19 01:59:35;;;;;;;11.90;6.80;;;15.00;87.00;;;;;;4591429;19;20358;-21
2022/05/19 02:01:06;;;;;;;11.30;7.20;;;15.00;86.70;;;;;;4591230;19;20098;-22
2022/05/19 02:02:55;;;;;;;11.13;6.97;;;15.00;86.50;;;;;;4590187;19;20112;-21
2022/05/19 02:04:34;;;;;;;13.40;6.70;;;14.90;86.40;;;;;;4591756;19;20016;-22
2022/05/19 02:06:46;;;;;;;10.73;6.73;;;14.90;86.70;;;;;;4592079;19;19994;-21
2022/05/19 02:08:18;;;;;;;;;;;14.90;86.50;;;;;;4592198;19;20020;-21
2022/05/19 02:09:59;;;;;;;12.95;7.90;;;15.00;86.70;;;;;;4591163;19;19922;-21
2022/05/19 02:11:43;;;;;;;14.13;8.97;;;15.00;86.80;;;;;;4591257;19;20018;-22
2022/05/19 02:13:14;;;;;;;14.83;8.73;;;14.90;86.30;;;;;;4591253;19;20390;-21
2022/05/19 02:14:48;;;;;;;15.32;8.77;;;14.90;86.30;;;;;;4591128;19;20026;-21
2022/05/19 02:16:20;;;;;;;13.13;8.60;;;15.00;86.40;;;;;;4590953;19;20018;-21
2022/05/19 02:17:51;;;;;;;;;;;14.90;86.60;;;;;;4591833;19;20492;-21
2022/05/19 02:19:24;;;;;;;14.40;8.90;;;14.90;86.60;;;;;;4590969;19;19927;-21
2022/05/19 02:20:57;;;;;;;15.80;9.50;;;14.90;86.60;;;;;;4590269;19;20023;-22
2022/05/19 02:22:31;;;;;;;15.03;9.63;;;14.90;86.40;;;;;;4589743;19;20039;-21
2022/05/19 02:24:02;;;;;;;14.60;8.90;;;14.90;86.10;;;;;;4591148;19;20013;-21
2022/05/19 02:25:40;;;;;;;11.80;8.60;;;14.90;86.00;;;;;;4591197;19;20346;-23
2022/05/19 02:27:31;;;;;;;14.80;8.23;;;14.90;85.90;;;;;;4590975;19;19995;-21
2022/05/19 02:29:06;;;;;;;11.87;8.00;;;14.90;86.10;;;;;;4591656;19;20355;-21
2022/05/19 02:30:38;;;;;;;13.87;8.57;;;14.90;86.00;;;;;;4590678;19;20007;-22
2022/05/19 02:32:09;;;;;;;11.60;7.47;;;14.90;86.00;;;;;;4591008;19;20078;-21
2022/05/19 02:33:40;;;;;;;13.25;9.05;;;14.90;85.90;;;;;;4589672;19;20477;-21
2022/05/19 02:35:12;;;;;;;15.13;9.50;;;14.90;85.90;;;;;;4592727;19;20017;-21
2022/05/19 02:36:43;;;;;;;14.75;8.35;;;14.90;86.00;;;;;;4592888;19;20088;-21
2022/05/19 02:38:14;;;;;;;13.93;9.38;;;14.90;86.10;;;;;;4593302;19;20052;-21
2022/05/19 02:39:46;;;;;;;13.87;8.93;;;14.90;85.90;;;;;;4592185;19;20428;-21
2022/05/19 02:41:17;;;;;;;14.15;7.93;;;14.90;85.70;;;;;;4592228;19;20006;-21
2022/05/19 02:42:47;;;;;;;13.70;9.55;;;14.90;85.90;;;;;;4591564;19;20165;-21
2022/05/19 02:44:18;;;;;;;12.82;8.63;;;14.90;85.80;;;;;;4593263;19;20006;-22
2022/05/19 02:45:50;;;;;;;16.73;9.98;;;14.90;85.90;;;;;;4593406;19;20076;-21
2022/05/19 02:47:21;;;;;;;14.65;9.80;;;14.90;85.80;;;;;;4592493;19;20483;-22
2022/05/19 02:48:52;;;;;;;15.05;8.93;;;14.80;85.60;;;;;;4592432;19;20077;-21
2022/05/19 02:50:23;;;;;;;19.00;10.43;;;14.90;85.70;;;;;;4591225;19;20015;-21
2022/05/19 02:51:54;;;;;;;16.20;10.52;;;14.80;85.50;;;;;;4592707;19;20013;-21
2022/05/19 02:53:25;;;;;;;16.38;10.48;;;14.90;85.60;;;;;;4592062;19;20090;-21
2022/05/19 02:54:56;;;;;;;19.52;12.77;;;14.80;85.30;;;;;;4591343;19;20074;-22
2022/05/19 02:56:27;;;;;;;24.90;13.90;;;14.90;85.30;;;;;;4592345;19;20351;-21
2022/05/19 02:57:58;;;;;;;21.77;14.32;;;14.80;84.80;;;;;;4592320;19;20014;-22
2022/05/19 02:59:30;;;;;;;22.52;14.57;;;14.80;84.70;;;;;;4592383;19;20417;-21
2022/05/19 03:01:01;;;;;;;25.50;15.77;;;14.80;84.60;;;;;;4592910;19;20321;-22
2022/05/19 03:02:32;;;;;;;23.63;14.68;;;14.80;84.20;;;;;;4591587;19;20027;-21
2022/05/19 03:04:03;;;;;;;25.60;15.52;;;14.80;83.90;;;;;;4591254;19;20010;-21
2022/05/19 03:05:34;;;;;;;27.48;15.10;;;14.80;83.90;;;;;;4592124;19;20011;-21
2022/05/19 03:07:06;;;;;;;31.33;16.25;;;14.80;83.50;;;;;;4592389;19;20007;-22
2022/05/19 03:08:36;;;;;;;26.08;15.40;;;14.80;83.40;;;;;;4591218;19;20479;-22
2022/05/19 03:10:08;;;;;;;28.83;15.63;;;14.80;83.20;;;;;;4591610;19;20362;-21
2022/05/19 03:11:39;;;;;;;25.77;15.32;;;14.80;83.10;;;;;;4592295;19;20014;-22
2022/05/19 03:13:18;;;;;;;29.85;16.65;;;14.80;82.90;;;;;;4591287;19;20005;-21
2022/05/19 03:14:49;;;;;;;28.40;16.20;;;14.80;82.70;;;;;;4592498;19;20021;-21
2022/05/19 03:16:20;;;;;;;24.90;16.55;;;14.80;82.70;;;;;;4592426;19;20074;-22
2022/05/19 03:17:51;;;;;;;25.27;16.48;;;14.80;82.90;;;;;;4592249;19;20038;-22
2022/05/19 03:19:25;;;;;;;28.77;16.17;;;14.80;82.50;;;;;;4592280;19;20030;-21
2022/05/19 03:20:56;;;;;;;26.38;16.45;;;14.80;82.60;;;;;;4590864;19;20024;-21
2022/05/19 03:22:27;;;;;;;27.02;17.15;;;14.80;82.80;;;;;;4590451;19;20021;-22
2022/05/19 03:23:58;;;;;;;30.23;18.05;;;14.80;82.80;;;;;;4591898;19;20021;-21
2022/05/19 03:25:29;;;;;;;28.02;17.88;;;14.80;82.80;;;;;;4592009;19;20013;-21
2022/05/19 03:27:00;;;;;;;26.40;16.67;;;14.80;83.10;;;;;;4590565;19;20398;-22
2022/05/19 03:28:31;;;;;;;30.00;16.27;;;14.80;83.10;;;;;;4591394;19;20036;-21
2022/05/19 03:30:03;;;;;;;26.17;16.48;;;14.80;83.00;;;;;;4591945;19;20361;-22
2022/05/19 03:31:34;;;;;;;24.40;15.10;;;14.80;83.20;;;;;;4589316;19;20367;-21
2022/05/19 03:33:05;;;;;;;24.13;14.60;;;14.90;83.60;;;;;;4590193;19;20014;-21
2022/05/19 03:34:37;;;;;;;24.23;13.27;;;14.80;83.80;;;;;;4591956;19;20019;-21
2022/05/19 03:36:11;;;;;;;20.08;13.57;;;14.80;84.20;;;;;;4592241;19;20017;-22
2022/05/19 03:37:43;;;;;;;23.33;14.43;;;14.90;84.10;;;;;;4590323;19;20014;-21
2022/05/19 03:39:14;;;;;;;22.90;14.53;;;14.80;84.10;;;;;;4591326;19;20018;-22
2022/05/19 03:40:45;;;;;;;23.23;13.57;;;14.90;84.10;;;;;;4590760;19;20078;-21
2022/05/19 03:42:16;;;;;;;23.80;14.05;;;14.80;84.30;;;;;;4590812;19;20006;-22
2022/05/19 03:43:47;;;;;;;24.70;14.30;;;14.80;84.40;;;;;;4591362;19;20017;-22
2022/05/19 03:45:18;;;;;;;24.52;14.90;;;14.90;84.80;;;;;;4590503;19;20017;-21
2022/05/19 03:46:49;;;;;;;20.58;13.30;;;14.90;84.80;;;;;;4590348;19;20021;-21
2022/05/19 03:48:21;;;;;;;19.40;13.00;;;14.90;84.80;;;;;;4591194;19;20097;-22
2022/05/19 03:49:52;;;;;;;24.38;14.23;;;14.90;84.80;;;;;;4590208;19;20006;-21
2022/05/19 03:51:25;;;;;;;21.65;12.95;;;14.90;84.80;;;;;;4590999;19;20014;-21
2022/05/19 03:52:56;;;;;;;20.73;12.80;;;14.90;84.90;;;;;;4591634;19;20019;-21
2022/05/19 03:54:27;;;;;;;20.00;12.57;;;14.90;85.00;;;;;;4590082;19;20354;-22
2022/05/19 03:55:58;;;;;;;24.98;12.70;;;14.90;85.20;;;;;;4591215;19;20468;-22
2022/05/19 03:57:28;;;;;;;20.67;12.23;;;14.90;85.40;;;;;;4591712;19;20011;-21
2022/05/19 03:59:00;;;;;;;19.23;11.10;;;14.90;85.50;;;;;;4591935;19;20048;-21
2022/05/19 04:00:31;;;;;;;20.75;11.15;;;14.90;85.40;;;;;;4589863;19;20014;-22
2022/05/19 04:02:03;;;;;;;17.10;10.63;;;14.90;85.10;;;;;;4589533;19;20021;-22
2022/05/19 04:03:34;;;;;;;16.98;10.10;;;14.90;85.30;;;;;;4591077;19;20018;-21
2022/05/19 04:05:05;;;;;;;16.30;10.65;;;15.00;85.20;;;;;;4590388;19;20035;-22
2022/05/19 04:06:36;;;;;;;16.02;10.30;;;15.00;85.20;;;;;;4590576;19;20019;-22
2022/05/19 04:08:07;;;;;;;16.88;11.02;;;14.90;85.30;;;;;;4589850;19;20038;-21
2022/05/19 04:09:38;;;;;;;15.50;9.52;;;14.90;85.40;;;;;;4590649;19;20357;-22
2022/05/19 04:11:10;;;;;;;13.63;9.82;;;15.00;85.30;;;;;;4591297;19;20093;-22
2022/05/19 04:12:43;;;;;;;14.95;9.23;;;15.00;85.30;;;;;;4590127;19;20010;-22
2022/05/19 04:14:14;;;;;;;14.13;8.87;;;15.00;85.30;;;;;;4590717;19;20018;-21
2022/05/19 04:15:45;;;;;;;;;;;15.00;85.50;;;;;;4591938;19;20032;-22
2022/05/19 04:17:16;;;;;;;12.90;8.50;;;15.00;85.40;;;;;;4591118;19;20322;-22
2022/05/19 04:18:47;;;;;;;14.35;9.20;;;15.00;85.60;;;;;;4589608;19;20010;-22
2022/05/19 04:20:18;;;;;;;15.68;8.73;;;15.00;85.80;;;;;;4590420;19;20014;-22
2022/05/19 04:21:49;;;;;;;14.65;9.43;;;15.00;85.60;;;;;;4590962;19;20003;-22
2022/05/19 04:23:21;;;;;;;13.60;9.15;;;15.10;86.00;;;;;;4591616;19;20031;-21
2022/05/19 04:24:52;;;;;;;14.20;8.48;;;15.10;85.90;;;;;;4589797;19;20006;-22
2022/05/19 04:26:23;;;;;;;20.08;8.70;;;15.10;86.00;;;;;;4590613;19;20033;-22
2022/05/19 04:27:54;;;;;;;14.07;9.35;;;15.10;85.50;;;;;;4591279;19;20006;-21
2022/05/19 04:29:25;;;;;;;14.00;8.85;;;15.10;85.60;;;;;;4590671;19;20007;-21
2022/05/19 04:30:56;;;;;;;12.90;7.70;;;15.10;85.80;;;;;;4589297;19;20023;-21
2022/05/19 04:32:27;;;;;;;15.88;8.52;;;15.10;86.30;;;;;;4589825;19;20014;-22
2022/05/19 04:33:58;;;;;;;17.73;8.30;;;15.20;85.80;;;;;;4589443;19;20026;-22
2022/05/19 04:35:30;;;;;;;14.20;7.38;;;15.20;85.40;;;;;;4589483;19;20014;-22
2022/05/19 04:37:01;;;;;;;14.02;7.72;;;15.20;84.80;;;;;;4589979;19;20033;-21
2022/05/19 04:38:32;;;;;;;13.95;8.75;;;15.20;84.30;;;;;;4591088;19;19995;-22
2022/05/19 04:40:04;;;;;;;11.35;7.15;;;15.20;84.50;;;;;;4590293;19;20015;-22
2022/05/19 04:41:36;;;;;;;16.27;8.70;;;15.20;84.20;;;;;;4589198;19;20011;-21
2022/05/19 04:43:07;;;;;;;10.60;7.23;;;15.20;84.20;;;;;;4588306;19;20018;-22
2022/05/19 04:44:39;;;;;;;13.60;7.10;;;15.30;84.10;;;;;;4589427;19;20010;-22
2022/05/19 04:46:10;;;;;;;12.25;6.75;;;15.30;83.40;;;;;;4590301;19;20011;-21
2022/05/19 04:47:41;;;;;;;8.93;6.43;;;15.30;83.00;;;;;;4591028;19;20035;-22
2022/05/19 04:49:12;;;;;;;12.05;6.30;;;15.30;82.40;;;;;;4591017;19;20370;-21
2022/05/19 04:50:43;;;;;;;10.02;6.65;;;15.40;82.50;;;;;;4590175;19;20031;-22
2022/05/19 04:52:14;;;;;;;15.90;6.78;;;15.40;81.80;;;;;;4590271;19;20003;-23
2022/05/19 04:53:45;;;;;;;11.90;6.25;;;15.40;82.20;;;;;;4589843;19;20028;-21
2022/05/19 04:55:16;;;;;;;11.25;6.47;;;15.40;81.00;;;;;;4590598;19;20010;-21
2022/05/19 04:56:47;;;;;;;12.52;6.10;;;15.40;81.40;;;;;;4589165;19;20015;-22
2022/05/19 04:58:18;;;;;;;11.05;6.85;;;15.40;80.70;;;;;;4589856;19;20018;-21
2022/05/19 04:59:49;;;;;;;10.88;7.18;;;15.50;81.60;;;;;;4589484;19;20151;-22
2022/05/19 05:01:20;;;;;;;11.40;6.45;;;15.50;82.50;;;;;;4589900;19;20006;-21
2022/05/19 05:02:51;;;;;;;;;;;15.50;82.70;;;;;;4589384;19;20018;-21
2022/05/19 05:04:23;;;;;;;;;;;15.50;83.60;;;;;;4590883;19;19915;-21
2022/05/19 05:05:54;;;;;;;;;;;15.60;85.10;;;;;;4591352;19;20321;-22
2022/05/19 05:07:25;;;;;;;;;;;15.60;86.20;;;;;;4591726;19;19935;-22
2022/05/19 05:08:56;;;;;;;;;;;15.60;86.60;;;;;;4590467;19;19907;-21
2022/05/19 05:10:26;;;;;;;;;;;15.60;86.90;;;;;;4591004;19;20327;-22
2022/05/19 05:11:58;;;;;;;;;;;15.60;86.90;;;;;;4590966;19;20329;-21
2022/05/19 05:13:28;;;;;;;;;;;15.60;87.00;;;;;;4589464;19;19914;-22
2022/05/19 05:14:59;;;;;;;;;;;15.60;86.90;;;;;;4590207;19;19911;-22
2022/05/19 05:16:30;;;;;;;;;;;15.60;86.40;;;;;;4590840;19;20274;-21
2022/05/19 05:18:01;;;;;;;;;;;15.70;86.50;;;;;;4591224;19;19978;-22
2022/05/19 05:19:32;;;;;;;;;;;15.70;86.70;;;;;;4590481;19;19915;-22
2022/05/19 05:21:04;;;;;;;;;;;15.70;87.00;;;;;;4590543;19;20357;-22
2022/05/19 05:22:36;;;;;;;;;;;15.70;86.70;;;;;;4590304;19;19918;-21
2022/05/19 05:24:07;;;;;;;;;;;15.70;86.50;;;;;;4589743;19;19952;-21
2022/05/19 05:25:38;;;;;;;;;;;15.70;86.40;;;;;;4590368;19;19914;-21
2022/05/19 05:27:09;;;;;;;;;;;15.70;85.20;;;;;;4590607;19;19918;-22
2022/05/19 05:28:40;;;;;;;;;;;15.70;84.70;;;;;;4589426;19;19948;-22
2022/05/19 05:30:11;;;;;;;;;;;15.70;85.10;;;;;;4589935;19;20324;-21
2022/05/19 05:31:42;;;;;;;;;;;15.70;85.20;;;;;;4590575;19;19918;-21
2022/05/19 05:33:14;;;;;;;;;;;15.80;84.60;;;;;;4590522;19;19915;-21
2022/05/19 05:34:45;;;;;;;;;;;14.40;85.60;;;;;;4591217;19;19919;-21
2022/05/19 05:36:16;;;;;;;;;;;13.20;90.30;;;;;;4590082;19;19985;-20
2022/05/19 05:37:47;;;;;;;;;;;12.80;91.70;;;;;;4590584;19;19925;-21
2022/05/19 05:39:18;;;;;;;;;;;12.70;91.10;;;;;;4591073;19;19919;-20
2022/05/19 05:40:50;;;;;;;;;;;12.70;92.40;;;;;;4590989;19;19922;-20
2022/05/19 05:42:21;;;;;;;;;;;12.70;91.20;;;;;;4589642;19;19923;-20
2022/05/19 05:43:52;;;;;;;;;;;12.80;91.10;;;;;;4590258;19;19974;-20
2022/05/19 05:45:23;;;;;;;;;;;12.80;91.20;;;;;;4589467;19;20329;-20
2022/05/19 05:46:54;;;;;;;;;;;12.90;91.60;;;;;;4589818;19;19954;-20
2022/05/19 05:48:25;;;;;;;;;;;12.90;92.10;;;;;;4590274;19;19967;-19
2022/05/19 05:49:56;;;;;;;;;;;12.90;91.10;;;;;;4590213;19;19910;-20
2022/05/19 05:51:27;;;;;;;;;;;13.00;88.70;;;;;;4590817;19;19951;-20
2022/05/19 05:52:58;;;;;;;;;;;13.00;90.00;;;;;;4589980;19;19945;-20
2022/05/19 05:54:29;;;;;;;;;;;13.10;88.80;;;;;;4588767;19;19919;-20
2022/05/19 05:56:01;;;;;;;;;;;13.20;87.70;;;;;;4593932;19;19911;-20
2022/05/19 05:57:31;;;;;;;;;;;13.20;86.20;;;;;;4595281;19;20378;-20
2022/05/19 05:59:02;;;;;;;;;;;13.30;87.10;;;;;;4594593;19;19918;-20
2022/05/19 06:00:34;;;;;;;;;;;13.40;84.20;;;;;;4593646;19;20005;-20
2022/05/19 06:02:05;;;;;;;;;;;13.50;86.80;;;;;;4592999;19;19978;-21
2022/05/19 06:03:35;;;;;;;;;;;13.60;85.40;;;;;;4594084;19;19954;-20
2022/05/19 06:05:06;;;;;;;;;;;13.60;83.00;;;;;;4594315;19;20009;-20
2022/05/19 06:06:38;;;;;;;;;;;13.80;80.80;;;;;;4593399;19;20014;-20
2022/05/19 06:08:08;;;;;;;;;;;13.80;85.50;;;;;;4592802;19;20479;-20
2022/05/19 06:09:40;;;;;;;;;;;13.80;82.90;;;;;;4594561;19;19931;-20
2022/05/19 06:11:17;;;;;;;;;;;13.80;82.00;;;;;;4592587;19;20302;-20
2022/05/19 06:12:51;;;;;;;;;;;14.00;80.40;;;;;;4592473;19;19918;-20
2022/05/19 06:14:22;;;;;;;;;;;14.10;80.00;;;;;;4594466;19;19943;-20
2022/05/19 06:15:53;;;;;;;;;;;14.10;83.50;;;;;;4594720;19;20321;-20
2022/05/19 06:17:27;;;;;;;;;;;14.20;80.70;;;;;;4594517;19;20329;-20
2022/05/19 06:18:59;;;;;;;;;;;14.20;80.90;;;;;;4593921;19;19927;-20
2022/05/19 06:20:30;;;;;;;;;;;14.30;80.00;;;;;;4594068;19;19914;-21
2022/05/19 06:22:01;;;;;;;;;;;14.40;80.20;;;;;;4591764;19;19922;-21
2022/05/19 06:23:32;;;;;;;6.32;2.97;;;14.40;77.80;;;;;;4591498;19;19915;-20
2022/05/19 06:25:05;;;;;;;3.97;2.50;;;14.50;77.90;;;;;;4590496;19;20018;-21
2022/05/19 06:26:38;;;;;;;4.50;2.70;;;14.60;77.90;;;;;;4591327;19;20425;-20
2022/05/19 06:28:09;;;;;;;4.63;2.47;;;14.70;78.30;;;;;;4590243;19;21044;-20
2022/05/19 06:29:40;;;;;;;3.55;2.38;;;14.70;78.10;;;;;;4592601;19;20537;-21
2022/05/19 06:31:11;;;;;;;3.25;2.08;;;14.70;80.20;;;;;;4592044;19;20371;-21
2022/05/19 06:32:43;;;;;;;4.40;2.75;;;14.70;76.10;;;;;;4592783;19;20021;-21
2022/05/19 06:34:14;;;;;;;3.25;1.98;;;14.80;77.30;;;;;;4590017;19;20447;-21
2022/05/19 06:35:45;;;;;;;3.60;2.42;;;14.80;78.10;;;;;;4591003;19;20015;-21
2022/05/19 06:37:18;;;;;;;3.47;2.40;;;14.80;77.40;;;;;;4592117;19;20014;-20
2022/05/19 06:38:49;;;;;;;3.67;2.30;;;14.90;75.20;;;;;;4591645;19;20456;-20
2022/05/19 06:40:21;;;;;;;5.50;1.95;;;15.00;74.60;;;;;;4591407;19;20484;-21
2022/05/19 06:42:01;;;;;;;4.37;2.20;;;14.90;78.20;;;;;;4591113;19;20026;-21
2022/05/19 06:43:33;;;;;;;4.60;2.47;;;14.90;75.80;;;;;;4591662;19;20452;-20
2022/05/19 06:45:04;;;;;;;4.07;2.33;;;15.00;75.60;;;;;;4590710;19;20014;-21
2022/05/19 06:46:35;;;;;;;4.68;2.40;;;15.10;77.20;;;;;;4591021;19;20500;-21
2022/05/19 06:48:07;;;;;;;4.00;2.38;;;15.10;78.20;;;;;;4593357;19;20445;-21
2022/05/19 06:49:38;;;;;;;3.37;2.10;;;15.00;77.60;;;;;;4593508;19;20026;-21
2022/05/19 06:51:10;;;;;;;4.57;2.05;;;15.10;78.70;;;;;;4592880;19;20497;-21
2022/05/19 06:52:51;;;;;;;5.22;2.20;;;15.10;77.70;;;;;;4591254;19;20111;-20
2022/05/19 06:54:22;;;;;;;5.80;2.40;;;15.20;74.50;;;;;;4591011;19;20018;-20
2022/05/19 06:55:54;;;;;;;5.18;2.47;;;15.10;79.80;;;;;;4591968;19;20097;-20
2022/05/19 06:57:26;;;;;;;3.22;2.30;;;15.10;77.50;;;;;;4591527;19;20014;-21
2022/05/19 06:58:57;;;;;;;;;;;15.10;75.90;;;;;;4591934;19;20018;-20
2022/05/19 07:00:28;;;;;;;4.70;1.90;;;15.10;76.80;;;;;;4590801;19;19943;-21
2022/05/19 07:02:00;;;;;;;4.15;2.40;;;15.20;75.40;;;;;;4589665;19;20018;-20
2022/05/19 07:03:31;;;;;;;3.92;2.28;;;15.30;76.30;;;;;;4590273;19;20287;-21
2022/05/19 07:05:02;;;;;;;3.30;2.00;;;15.30;74.40;;;;;;4592846;19;20338;-21
2022/05/19 07:06:33;;;;;;;3.63;2.03;;;15.40;74.70;;;;;;4591528;19;20488;-21
2022/05/19 07:08:06;;;;;;;4.78;2.80;;;15.50;74.30;;;;;;4592122;19;20018;-21
2022/05/19 07:09:37;;;;;;;4.20;2.30;;;15.50;75.00;;;;;;4591806;19;20006;-21
2022/05/19 07:11:24;;;;;;;4.68;2.40;;;15.50;74.20;;;;;;4591646;19;20017;-20
2022/05/19 07:12:55;;;;;;;3.30;2.30;;;15.60;71.70;;;;;;4592384;19;20031;-20
2022/05/19 07:14:27;;;;;;;7.03;2.20;;;15.70;72.10;;;;;;4590474;19;20168;-21
2022/05/19 07:15:59;;;;;;;5.53;2.13;;;15.70;72.40;;;;;;4590541;19;20006;-21
2022/05/19 07:17:30;;;;;;;5.13;3.13;;;15.70;75.80;;;;;;4589145;19;20027;-21
2022/05/19 07:20:52;;;;;;;4.23;2.87;;;15.80;73.60;;;;;;4589497;19;20078;-21
2022/05/19 07:22:24;;;;;;;4.30;2.83;;;15.80;76.00;;;;;;4589311;19;20018;-21
2022/05/19 07:23:55;;;;;;;5.00;2.80;;;15.70;74.90;;;;;;4593022;19;20086;-21
2022/05/19 07:25:26;;;;;;;4.95;3.05;;;15.80;73.20;;;;;;4592427;19;20011;-21
2022/05/19 07:26:58;;;;;;;;;;;15.90;71.60;;;;;;4593264;19;20012;-21
2022/05/19 07:28:29;;;;;;;5.13;2.65;;;16.00;71.80;;;;;;4590458;19;20372;-21
2022/05/19 07:30:00;;;;;;;4.10;2.58;;;16.00;72.20;;;;;;4590988;19;20358;-21
2022/05/19 07:31:32;;;;;;;3.67;2.27;;;16.10;72.10;;;;;;4591342;19;20014;-21
2022/05/19 07:33:03;;;;;;;3.90;2.38;;;16.10;73.70;;;;;;4590275;19;20039;-21
2022/05/19 07:34:35;;;;;;;4.45;2.40;;;16.10;72.10;;;;;;4590474;19;20014;-21
2022/05/19 07:36:08;;;;;;;4.33;2.43;;;16.20;71.90;;;;;;4589816;19;20356;-21
2022/05/19 07:37:39;;;;;;;6.17;2.20;;;16.20;72.50;;;;;;4588523;19;20025;-21
2022/05/19 07:39:11;;;;;;;;;;;16.20;70.50;;;;;;4592217;19;20014;-21
2022/05/19 07:40:42;;;;;;;;;;;16.20;71.90;;;;;;4592643;19;19925;-21
2022/05/19 07:42:13;;;;;;;;;;;16.30;71.30;;;;;;4592274;19;19915;-21
2022/05/19 07:43:44;;;;;;;;;;;16.20;72.30;;;;;;4591700;19;19911;-20
2022/05/19 07:45:16;;;;;;;;;;;16.30;70.30;;;;;;4591057;19;19918;-20
2022/05/19 07:46:46;;;;;;;;;;;16.30;69.90;;;;;;4590492;19;20422;-20
2022/05/19 07:48:17;;;;;;;;;;;16.30;70.20;;;;;;4590570;19;19931;-21
2022/05/19 07:49:48;;;;;;;;;;;16.30;71.60;;;;;;4592947;19;19946;-21
2022/05/19 07:51:23;;;;;;;;;;;16.30;70.40;;;;;;4587495;19;19926;-21
2022/05/19 07:52:54;;;;;;;;;;;16.40;71.60;;;;;;4591760;19;19915;-21
2022/05/19 07:54:26;;;;;;;;;;;16.40;68.60;;;;;;4591179;19;19925;-20
2022/05/19 07:55:57;;;;;;;;;;;16.50;69.10;;;;;;4590763;19;19918;-21
2022/05/19 07:57:28;;;;;;;;;;;16.50;70.30;;;;;;4591020;19;19980;-21
2022/05/19 07:59:00;;;;;;;;;;;16.50;71.40;;;;;;4590379;19;19926;-22
2022/05/19 08:00:31;;;;;;;;;;;16.60;73.20;;;;;;4591456;19;19919;-20
2022/05/19 08:02:02;;;;;;;;;;;16.60;72.10;;;;;;4591194;19;20325;-21
2022/05/19 08:03:33;;;;;;;;;;;16.60;72.50;;;;;;4591796;19;19946;-21
2022/05/19 08:05:04;;;;;;;;;;;16.60;69.10;;;;;;4592196;19;19914;-20
2022/05/19 08:06:35;;;;;;;;;;;16.70;69.20;;;;;;4592245;19;19974;-21
2022/05/19 08:08:06;;;;;;;;;;;16.80;69.30;;;;;;4589971;19;19919;-21
2022/05/19 08:11:28;;;;;;;;;;;16.80;70.00;;;;;;4588150;19;19919;-20
2022/05/19 08:16:38;;;;;;;;;;;16.80;70.70;;;;;;4588497;19;19918;-21
2022/05/19 08:18:19;;;;;;;;;;;16.80;70.70;;;;;;4586683;19;19922;-22